Time;durP1;ratioP1;P1;durP2;ratioP2;P2;SDS_P1;SDS_P2;PMS_P1;PMS_P2;Temp;Humidity;BMP_temperature;BMP_pressure;BME280_temperature;BME280_humidity;BME280_pressure;Samples;Min_cycle;Max_cycle;Signal;HPM_P1;HPM_P2
2023/02/24 00:00:29;;;;;;;;;;;;;;;-142.75;100.00;78330.50;4934440;28;20141;-66
2023/02/24 00:02:48;;;;;;;;;;;;;;;-142.75;100.00;78314.75;4952507;28;19922;-66
2023/02/24 00:05:13;;;;;;;;;;;;;;;-142.75;100.00;78310.81;4951464;29;19914;-66
2023/02/24 00:07:38;;;;;;;;;;;;;;;-142.75;100.00;78336.41;4943172;29;19921;-65
2023/02/24 00:10:04;;;;;;;;;;;;;;;-142.75;100.00;78346.25;4933173;29;19919;-65
2023/02/24 00:12:29;;;;;;;;;;;;;;;-142.75;100.00;78320.66;4936661;29;19918;-65
2023/02/24 00:14:57;;;;;;;;;;;;;;;-142.75;100.00;78314.75;4937410;29;19922;-65
2023/02/24 00:17:26;;;;;;;;;;;;;;;-142.75;100.00;78312.78;4937176;28;19919;-66
2023/02/24 00:19:51;;;;;;;;;;;;;;;-142.75;100.00;78300.97;4937111;29;19970;-65
2023/02/24 00:22:17;;;;;;;;;;;;;;;-142.75;100.00;78310.81;4937127;29;19914;-65
2023/02/24 00:24:42;;;;;;;;;;;;;;;-142.75;100.00;78293.06;4951983;28;20335;-65
2023/02/24 00:27:09;;;;;;;;;;;;;;;-142.75;100.00;78283.22;4937126;28;19918;-66
2023/02/24 00:29:39;;;;;;;;;;;;;;;-142.75;100.00;78297.00;4936904;29;19943;-65
2023/02/24 00:32:06;;;;;;;;;;;;;;;-142.75;100.00;78275.34;4936928;29;19923;-65
2023/02/24 00:34:34;;;;;;;;;;;;;;;-142.75;100.00;78277.31;4936818;29;19914;-65
2023/02/24 00:36:59;;;;;;;;;;;;;;;-142.75;100.00;78261.56;4937073;29;19957;-67
2023/02/24 00:39:32;;;;;;;;;;;;;;;-142.75;100.00;78257.63;4937246;29;19953;-65
2023/02/24 00:42:03;;;;;;;;;;;;;;;-142.75;100.00;78267.47;4942072;28;20425;-65
2023/02/24 00:44:31;;;;;;;;;;;;;;;-142.75;100.00;78253.69;4936796;29;19922;-65
2023/02/24 00:46:57;;;;;;;;;;;;;;;-142.75;100.00;78247.78;4936809;29;19915;-66
2023/02/24 00:49:23;;;;;;;;;;;;;;;-142.75;100.00;78271.41;4936469;28;19959;-66
2023/02/24 00:51:48;;;;;;;;;;;;;;;-142.75;100.00;78279.28;4936386;29;19927;-66
2023/02/24 00:54:15;;;;;;;;;;;;;;;-142.75;100.00;78271.41;4936656;29;19918;-65
2023/02/24 00:56:44;;;;;;;;;;;;;;;-142.75;100.00;78287.16;4939267;29;19914;-65
2023/02/24 00:59:11;;;;;;;;;;;;;;;-142.75;100.00;78275.34;4936052;28;19922;-65
2023/02/24 01:01:37;;;;;;;;;;;;;;;-142.75;100.00;78273.38;4948061;28;20398;-65
2023/02/24 01:04:09;;;;;;;;;;;;;;;-142.75;100.00;78275.34;4955620;29;19915;-67
2023/02/24 01:06:35;;;;;;;;;;;;;;;-142.75;100.00;78265.50;4956160;28;20380;-65
2023/02/24 01:09:00;;;;;;;;;;;;;;;-142.75;100.00;78239.91;4955301;29;19915;-64
2023/02/24 01:14:12;;;;;;;;;;;;;;;-142.75;100.00;78245.81;4948117;29;19921;-65
2023/02/24 01:16:38;;;;;;;;;;;;;;;-142.75;100.00;78255.66;4955322;28;20376;-65
2023/02/24 01:19:06;;;;;;;;;;;;;;;-142.75;100.00;78259.59;4955267;29;19914;-64
2023/02/24 01:21:31;;;;;;;;;;;;;;;-142.75;100.00;78247.78;4948203;28;19915;-65
2023/02/24 01:23:57;;;;;;;;;;;;;;;-142.75;100.00;78241.88;4935214;29;19915;-65
2023/02/24 01:26:24;;;;;;;;;;;;;;;-142.75;100.00;78230.06;4936123;29;19919;-65
2023/02/24 01:28:50;;;;;;;;;;;;;;;-142.75;100.00;78228.09;4936011;29;20389;-65
2023/02/24 01:31:17;;;;;;;;;;;;;;;-142.75;100.00;78232.03;4934624;29;20001;-65
2023/02/24 01:33:44;;;;;;;;;;;;;;;-142.75;100.00;78216.28;4934817;29;19926;-65
2023/02/24 01:36:14;;;;;;;;;;;;;;;-142.75;100.00;78216.28;4935973;29;19970;-65
2023/02/24 01:38:41;;;;;;;;;;;;;;;-142.75;100.00;78202.50;4935712;29;20416;-65
2023/02/24 01:41:07;;;;;;;;;;;;;;;-142.75;100.00;78196.59;4935732;29;19915;-65
2023/02/24 01:43:32;;;;;;;;;;;;;;;-142.75;100.00;78186.75;4935816;28;20376;-65
2023/02/24 01:45:58;;;;;;;;;;;;;;;-142.75;100.00;78204.47;4953153;29;19914;-65
2023/02/24 01:48:23;;;;;;;;;;;;;;;-142.75;100.00;78190.69;4935583;29;20046;-65
2023/02/24 01:50:49;;;;;;;;;;;;;;;-142.75;100.00;78192.66;4935428;29;19982;-65
2023/02/24 01:53:15;;;;;;;;;;;;;;;-142.75;100.00;78204.47;4935573;28;19982;-65
2023/02/24 01:55:48;;;;;;;;;;;;;;;-142.75;100.00;78200.53;4935636;29;19915;-66
2023/02/24 01:58:25;;;;;;;;;;;;;;;-142.75;100.00;78196.59;4950274;28;19915;-68
2023/02/24 02:00:50;;;;;;;;;;;;;;;-142.75;100.00;78196.59;4935283;29;19922;-66
2023/02/24 02:03:15;;;;;;;;;;;;;;;-142.75;100.00;78196.59;4935543;29;19915;-66
2023/02/24 02:05:41;;;;;;;;;;;;;;;-142.75;100.00;78196.59;4965189;28;19918;-66
2023/02/24 02:08:08;;;;;;;;;;;;;;;-142.75;100.00;78196.59;4953108;29;19914;-67
2023/02/24 02:10:33;;;;;;;;;;;;;;;-142.75;100.00;78194.63;4954207;28;19918;-66
2023/02/24 02:12:59;;;;;;;;;;;;;;;-142.75;100.00;78188.72;4954353;28;19969;-66
2023/02/24 02:15:26;;;;;;;;;;;;;;;-142.75;100.00;78190.69;4954339;29;19921;-66
2023/02/24 02:17:57;;;;;;;;;;;;;;;-142.75;100.00;78186.75;4954474;29;19915;-63
2023/02/24 02:20:25;;;;;;;;;;;;;;;-142.75;100.00;78186.75;4952824;29;19918;-65
2023/02/24 02:23:27;;;;;;;;;;;;;;;-142.75;100.00;78184.78;4953036;28;19914;-65
2023/02/24 02:26:17;;;;;;;;;;;;;;;-142.75;100.00;78192.66;4931697;29;19941;-65
2023/02/24 02:29:02;;;;;;;;;;;;;;;-142.75;100.00;78194.63;4933863;29;19918;-65
2023/02/24 02:31:54;;;;;;;;;;;;;;;-142.75;100.00;78194.63;4933747;29;19977;-66
2023/02/24 02:34:35;;;;;;;;;;;;;;;-142.75;100.00;78188.72;4926610;29;20469;-65
2023/02/24 02:37:07;;;;;;;;;;;;;;;-142.75;100.00;78192.66;4933595;29;19985;-67
2023/02/24 02:39:48;;;;;;;;;;;;;;;-142.75;100.00;78188.72;4934787;28;19946;-66
2023/02/24 02:42:31;;;;;;;;;;;;;;;-142.75;100.00;78202.50;4934730;29;20404;-65
2023/02/24 02:45:00;;;;;;;;;;;;;;;-142.75;100.00;78208.41;4934433;29;19915;-66
2023/02/24 02:47:40;;;;;;;;;;;;;;;-142.75;100.00;78220.22;4934668;29;19918;-65
2023/02/24 02:50:25;;;;;;;;;;;;;;;-142.75;100.00;78210.38;4934409;29;19966;-65
2023/02/24 02:53:02;;;;;;;;;;;;;;;-142.75;100.00;78202.50;4934407;29;20431;-65
2023/02/24 02:55:37;;;;;;;;;;;;;;;-142.75;100.00;78188.72;4934438;29;19973;-65
2023/02/24 02:58:07;;;;;;;;;;;;;;;-142.75;100.00;78188.72;4932987;29;19919;-66
2023/02/24 03:00:36;;;;;;;;;;;;;;;-142.75;100.00;78196.59;4932944;29;19957;-65
2023/02/24 03:03:07;;;;;;;;;;;;;;;-142.75;100.00;78200.53;4935342;29;20542;-65
2023/02/24 03:05:36;;;;;;;;;;;;;;;-142.75;100.00;78200.53;4953497;29;19919;-65
2023/02/24 03:08:03;;;;;;;;;;;;;;;-142.75;100.00;78178.84;4953227;28;19914;-66
2023/02/24 03:10:33;;;;;;;;;;;;;;;-142.75;100.00;78172.94;4944794;28;19926;-65
2023/02/24 03:13:00;;;;;;;;;;;;;;;-142.75;100.00;78169.00;4934098;28;20376;-67
2023/02/24 03:15:27;;;;;;;;;;;;;;;-142.75;100.00;78169.00;4934333;29;20004;-66
2023/02/24 03:18:00;;;;;;;;;;;;;;;-142.75;100.00;78167.03;4934072;29;19918;-65
2023/02/24 03:20:31;;;;;;;;;;;;;;;-142.75;100.00;78155.22;4951751;29;19914;-65
2023/02/24 03:22:59;;;;;;;;;;;;;;;-142.75;100.00;78165.06;4953179;28;20460;-65
2023/02/24 03:25:28;;;;;;;;;;;;;;;-142.75;100.00;78163.09;4953084;29;20467;-65
2023/02/24 03:28:00;;;;;;;;;;;;;;;-142.75;100.00;78151.28;4953255;28;19914;-66
2023/02/24 03:30:36;;;;;;;;;;;;;;;-142.75;100.00;78163.09;4952395;28;19974;-65
2023/02/24 03:33:07;;;;;;;;;;;;;;;-142.75;100.00;78149.31;4953042;28;19921;-65
2023/02/24 03:35:36;;;;;;;;;;;;;;;-142.75;100.00;78149.31;4952572;29;19926;-65
2023/02/24 03:38:02;;;;;;;;;;;;;;;-142.75;100.00;78141.44;4935254;29;19930;-66
2023/02/24 03:40:28;;;;;;;;;;;;;;;-142.75;100.00;78147.34;4946764;29;20320;-65
2023/02/24 03:43:04;;;;;;;;;;;;;;;-142.75;100.00;78133.56;4952643;28;20001;-66
2023/02/24 03:45:30;;;;;;;;;;;;;;;-142.75;100.00;78135.53;4944590;29;19914;-65
2023/02/24 03:47:55;;;;;;;;;;;;;;;-142.75;100.00;78141.44;4947369;29;20261;-65
2023/02/24 03:50:21;;;;;;;;;;;;;;;-142.75;100.00;78141.44;4933614;29;19926;-65
2023/02/24 03:52:46;;;;;;;;;;;;;;;-142.75;100.00;78125.69;4932332;29;19943;-65
2023/02/24 03:55:15;;;;;;;;;;;;;;;-142.75;100.00;78129.63;4933587;29;19938;-65
2023/02/24 03:57:53;;;;;;;;;;;;;;;-142.75;100.00;78115.84;4934064;29;19923;-65
2023/02/24 04:00:25;;;;;;;;;;;;;;;-142.75;100.00;78106.00;4952334;28;19914;-65
2023/02/24 04:03:03;;;;;;;;;;;;;;;-142.75;100.00;78086.31;4951327;28;19915;-65
2023/02/24 04:05:29;;;;;;;;;;;;;;;-142.75;100.00;78078.44;4952848;29;19977;-65
2023/02/24 04:07:55;;;;;;;;;;;;;;;-142.75;100.00;78082.38;4952673;29;19914;-65
2023/02/24 04:10:30;;;;;;;;;;;;;;;-142.75;100.00;78082.38;4934080;29;19946;-66
2023/02/24 04:13:03;;;;;;;;;;;;;;;-142.75;100.00;78082.38;4940476;29;20448;-65
2023/02/24 04:15:31;;;;;;;;;;;;;;;-142.75;100.00;78074.50;4952793;28;20426;-66
2023/02/24 04:18:00;;;;;;;;;;;;;;;-142.75;100.00;78070.56;4952482;28;19914;-66
2023/02/24 04:20:28;;;;;;;;;;;;;;;-142.75;100.00;78062.69;4951180;29;20033;-65
2023/02/24 04:22:58;;;;;;;;;;;;;;;-142.75;100.00;78058.72;4952496;28;20454;-65
2023/02/24 04:25:25;;;;;;;;;;;;;;;-142.75;100.00;78056.78;4951329;29;19921;-65
2023/02/24 04:27:57;;;;;;;;;;;;;;;-142.75;100.00;78046.91;4952661;28;19914;-67
2023/02/24 04:30:23;;;;;;;;;;;;;;;-142.75;100.00;78041.00;4952230;28;19922;-65
2023/02/24 04:32:49;;;;;;;;;;;;;;;-142.75;100.00;78023.28;4952646;28;20010;-66
2023/02/24 04:35:18;;;;;;;;;;;;;;;-142.75;100.00;78025.25;4951033;29;20388;-65
2023/02/24 04:37:43;;;;;;;;;;;;;;;-142.75;100.00;78029.19;4951099;29;21704;-67
2023/02/24 04:40:09;;;;;;;;;;;;;;;-142.75;100.00;78044.94;4952182;28;20017;-65
2023/02/24 04:42:35;;;;;;;;;;;;;;;-142.75;100.00;78023.28;4952505;28;19922;-65
2023/02/24 04:45:00;;;;;;;;;;;;;;;-142.75;100.00;78039.03;4952469;28;19914;-65
2023/02/24 04:47:27;;;;;;;;;;;;;;;-142.75;100.00;78023.28;4951138;28;20005;-67
2023/02/24 04:49:53;;;;;;;;;;;;;;;-142.75;100.00;78025.25;4941744;29;19918;-65
2023/02/24 04:52:19;;;;;;;;;;;;;;;-142.75;100.00;78027.22;4950988;28;19997;-65
2023/02/24 04:54:44;;;;;;;;;;;;;;;-142.75;100.00;78025.25;4951210;29;20001;-66
2023/02/24 04:57:10;;;;;;;;;;;;;;;-142.75;100.00;78019.34;4952500;28;19965;-65
2023/02/24 04:59:36;;;;;;;;;;;;;;;-142.75;100.00;77999.66;4953768;29;19914;-65
2023/02/24 05:02:03;;;;;;;;;;;;;;;-142.75;100.00;77995.72;4955440;28;19918;-65
2023/02/24 05:04:30;;;;;;;;;;;;;;;-142.75;100.00;77987.84;4955588;28;19950;-65
2023/02/24 05:06:56;;;;;;;;;;;;;;;-142.75;100.00;77979.97;4955567;28;19999;-65
2023/02/24 05:09:21;;;;;;;;;;;;;;;-142.75;100.00;77974.06;4955020;28;19914;-66
2023/02/24 05:11:47;;;;;;;;;;;;;;;-142.75;100.00;77970.13;4938372;29;19950;-65
2023/02/24 05:14:14;;;;;;;;;;;;;;;-142.75;100.00;77974.06;4934906;29;20011;-65
2023/02/24 05:16:42;;;;;;;;;;;;;;;-142.75;100.00;77952.41;4936256;29;19914;-66
2023/02/24 05:21:56;;;;;;;;;;;;;;;-142.75;100.00;77952.41;4934952;29;19977;-66
2023/02/24 05:24:22;;;;;;;;;;;;;;;-142.75;100.00;77944.53;4936212;29;20436;-67
2023/02/24 05:26:48;;;;;;;;;;;;;;;-142.75;100.00;77934.69;4950800;28;20312;-66
2023/02/24 05:29:13;;;;;;;;;;;;;;;-142.75;100.00;77932.72;4932203;29;20009;-65
2023/02/24 05:31:38;;;;;;;;;;;;;;;-142.75;100.00;77930.75;4933892;29;20061;-65
2023/02/24 05:34:06;;;;;;;;;;;;;;;-142.75;100.00;77928.78;4948067;29;19983;-65
2023/02/24 05:36:39;;;;;;;;;;;;;;;-142.75;100.00;77924.84;4934267;29;19915;-65
2023/02/24 05:39:08;;;;;;;;;;;;;;;-142.75;100.00;77913.03;4933293;29;19962;-65
2023/02/24 05:41:34;;;;;;;;;;;;;;;-142.75;100.00;77909.06;4950586;28;19915;-65
2023/02/24 05:44:03;;;;;;;;;;;;;;;-142.75;100.00;77907.09;4935997;29;19914;-66
2023/02/24 05:46:32;;;;;;;;;;;;;;;-142.75;100.00;77893.31;4935776;29;19970;-65
2023/02/24 05:48:58;;;;;;;;;;;;;;;-142.75;100.00;77897.25;4935822;29;19915;-66
2023/02/24 05:51:35;;;;;;;;;;;;;;;-142.75;100.00;77883.47;4950011;28;19918;-66
2023/02/24 05:54:04;;;;;;;;;;;;;;;-142.75;100.00;77881.50;4940177;29;19914;-66
2023/02/24 05:56:30;;;;;;;;;;;;;;;-142.75;100.00;77883.47;4943817;28;20529;-66
2023/02/24 05:59:00;;;;;;;;;;;;;;;-142.75;100.00;77871.66;4935418;28;19914;-67
2023/02/24 06:01:29;;;;;;;;;;;;;;;-142.75;100.00;77850.00;4935569;29;20393;-67
2023/02/24 06:03:54;;;;;;;;;;;;;;;-142.75;100.00;77838.19;4935459;29;20009;-65
2023/02/24 06:06:19;;;;;;;;;;;;;;;-142.75;100.00;77836.22;4935530;29;20415;-65
2023/02/24 06:08:50;;;;;;;;;;;;;;;-142.75;100.00;77850.00;4951032;28;19920;-66
2023/02/24 06:11:17;;;;;;;;;;;;;;;-142.75;100.00;77846.06;4954105;28;19922;-65
2023/02/24 06:13:46;;;;;;;;;;;;;;;-142.75;100.00;77855.91;4953110;29;19914;-66
2023/02/24 06:16:12;;;;;;;;;;;;;;;-142.75;100.00;77830.31;4954355;29;20362;-65
2023/02/24 06:18:37;;;;;;;;;;;;;;;-142.75;100.00;77830.31;4952923;29;19957;-66
2023/02/24 06:21:03;;;;;;;;;;;;;;;-142.75;100.00;77838.19;4954166;28;20383;-64
2023/02/24 06:23:28;;;;;;;;;;;;;;;-142.75;100.00;77826.38;4954324;28;19915;-65
2023/02/24 06:25:56;;;;;;;;;;;;;;;-142.75;100.00;77814.56;4953724;29;20368;-65
2023/02/24 06:28:22;;;;;;;;;;;;;;;-142.75;100.00;77818.50;4952360;29;19922;-64
2023/02/24 06:30:47;;;;;;;;;;;;;;;-142.75;100.00;77806.69;4953706;29;20380;-65
2023/02/24 06:33:12;;;;;;;;;;;;;;;-142.75;100.00;77796.84;4953821;28;20419;-65
2023/02/24 06:35:37;;;;;;;;;;;;;;;-142.75;100.00;77788.97;4953854;28;20468;-66
2023/02/24 06:38:03;;;;;;;;;;;;;;;-142.75;100.00;77794.88;4953052;29;20535;-65
2023/02/24 06:40:30;;;;;;;;;;;;;;;-142.75;100.00;77794.88;4948863;28;19943;-66
2023/02/24 06:42:55;;;;;;;;;;;;;;;-142.75;100.00;77790.94;4933436;29;19921;-65
2023/02/24 06:45:22;;;;;;;;;;;;;;;-142.75;100.00;77771.25;4934406;29;20376;-65
2023/02/24 06:47:50;;;;;;;;;;;;;;;-142.75;100.00;77767.31;4934423;29;20021;-66
2023/02/24 06:50:19;;;;;;;;;;;;;;;-142.75;100.00;77767.31;4934327;29;19948;-65
2023/02/24 06:52:45;;;;;;;;;;;;;;;-142.75;100.00;77763.38;4934152;29;19968;-65
2023/02/24 06:55:23;;;;;;;;;;;;;;;-142.75;100.00;77757.47;4948988;28;20328;-65
2023/02/24 06:57:49;;;;;;;;;;;;;;;-142.75;100.00;77747.63;4934372;28;19918;-66
2023/02/24 07:00:19;;;;;;;;;;;;;;;-142.75;100.00;77745.66;4934080;29;19929;-65
2023/02/24 07:02:44;;;;;;;;;;;;;;;-142.75;100.00;77745.66;4941018;28;19915;-65
2023/02/24 07:05:13;;;;;;;;;;;;;;;-142.75;100.00;77731.88;4977240;23;19921;-66
2023/02/24 07:07:44;;;;;;;;;;;;;;;-142.75;100.00;77722.00;4990474;28;19930;-66
2023/02/24 07:10:10;;;;;;;;;;;;;;;-142.75;100.00;77710.19;4990369;28;19922;-66
2023/02/24 07:12:35;;;;;;;;;;;;;;;-142.75;100.00;77716.09;4991976;28;20613;-66
2023/02/24 07:15:00;;;;;;;;;;;;;;;-142.75;100.00;77710.19;4991817;28;19926;-66
2023/02/24 07:17:25;;;;;;;;;;;;;;;-142.75;100.00;77706.25;4991902;28;19937;-65
2023/02/24 07:19:53;;;;;;;;;;;;;;;-142.75;100.00;77700.34;4991538;28;19918;-66
2023/02/24 07:22:23;;;;;;;;;;;;;;;-142.75;100.00;77704.28;4991332;28;19920;-67
2023/02/24 07:24:49;;;;;;;;;;;;;;;-142.75;100.00;77680.66;4991835;28;19920;-67
2023/02/24 07:27:21;;;;;;;;;;;;;;;-142.75;100.00;77680.66;4986737;28;20008;-67
2023/02/24 07:29:46;;;;;;;;;;;;;;;-142.75;100.00;77680.66;4972130;28;19921;-67
2023/02/24 07:32:12;;;;;;;;;;;;;;;-142.75;100.00;77659.00;4970989;28;19926;-67
2023/02/24 07:34:38;;;;;;;;;;;;;;;-142.75;100.00;77672.78;4972335;28;19914;-66
2023/02/24 07:37:06;;;;;;;;;;;;;;;-142.75;100.00;77645.22;4972179;28;19921;-67
2023/02/24 07:39:32;;;;;;;;;;;;;;;-142.75;100.00;77639.31;4972058;28;20403;-67
2023/02/24 07:41:58;;;;;;;;;;;;;;;-142.75;100.00;77645.22;4971134;28;19940;-67
2023/02/24 07:44:23;;;;;;;;;;;;;;;-142.75;100.00;77633.41;4972256;28;19922;-67
2023/02/24 07:46:49;;;;;;;;;;;;;;;-142.75;100.00;77621.59;4972102;28;19914;-66
2023/02/24 07:49:17;;;;;;;;;;;;;;;-142.75;100.00;77617.66;4972072;28;19969;-67
2023/02/24 07:51:42;;;;;;;;;;;;;;;-142.75;100.00;77603.88;4970862;28;19918;-67
2023/02/24 07:54:10;;;;;;;;;;;;;;;-142.75;100.00;77609.78;4972246;28;19972;-67
2023/02/24 07:56:44;;;;;;;;;;;;;;;-142.75;100.00;77590.09;4971651;28;20335;-67
2023/02/24 07:59:14;;;;;;;;;;;;;;;-142.75;100.00;77574.34;4971946;28;19985;-67
2023/02/24 08:01:39;;;;;;;;;;;;;;;-142.75;100.00;77570.41;4972393;28;19914;-67
2023/02/24 08:04:11;;;;;;;;;;;;;;;-142.75;100.00;77574.34;4970938;28;19921;-67
2023/02/24 08:06:42;;;;;;;;;;;;;;;-142.75;100.00;77566.47;4970520;28;20391;-67
2023/02/24 08:09:19;;;;;;;;;;;;;;;-142.75;100.00;77552.69;4971799;28;20280;-67
2023/02/24 08:11:48;;;;;;;;;;;;;;;-142.75;100.00;77548.75;4972114;28;19918;-67
2023/02/24 08:14:13;;;;;;;;;;;;;;;-142.75;100.00;77542.84;4972052;28;20552;-67
2023/02/24 08:16:40;;;;;;;;;;;;;;;-142.75;100.00;77527.09;4971976;28;19913;-67
2023/02/24 08:19:06;;;;;;;;;;;;;;;-142.75;100.00;77523.16;4971716;28;19914;-66
2023/02/24 08:21:36;;;;;;;;;;;;;;;-142.75;100.00;77519.22;4972070;28;19918;-67
2023/02/24 08:24:02;;;;;;;;;;;;;;;-142.75;100.00;77505.44;4972000;28;19922;-66
2023/02/24 08:26:30;;;;;;;;;;;;;;;-142.75;100.00;77513.31;4985634;28;20423;-67
2023/02/24 08:28:55;;;;;;;;;;;;;;;-142.75;100.00;77501.50;4971681;28;19960;-67
2023/02/24 08:31:20;;;;;;;;;;;;;;;-142.75;100.00;77487.72;4971787;28;19921;-66
2023/02/24 08:33:46;;;;;;;;;;;;;;;-142.75;100.00;77477.88;4975478;28;19913;-68
2023/02/24 08:36:11;;;;;;;;;;;;;;;-142.75;100.00;77468.03;4977359;28;19973;-67
2023/02/24 08:38:40;;;;;;;;;;;;;;;-142.75;100.00;77466.03;4995118;28;19922;-67
2023/02/24 08:41:10;;;;;;;;;;;;;;;-142.75;100.00;77471.97;4994641;28;19968;-67
2023/02/24 08:43:38;;;;;;;;;;;;;;;-142.75;100.00;77466.03;4994893;28;19914;-68
2023/02/24 08:46:16;;;;;;;;;;;;;;;-142.75;100.00;77460.13;4994579;28;19917;-68
2023/02/24 08:48:54;;;;;;;;;;;;;;;-142.75;100.00;77454.25;4984974;28;20008;-68
2023/02/24 08:51:29;;;;;;;;;;;;;;;-142.75;100.00;77440.44;4974768;28;20351;-69
2023/02/24 08:53:57;;;;;;;;;;;;;;;-142.75;100.00;77436.50;4974690;28;19914;-68
2023/02/24 08:56:24;;;;;;;;;;;;;;;-142.75;100.00;77422.72;4978043;28;19922;-68
2023/02/24 08:58:55;;;;;;;;;;;;;;;-142.75;100.00;77393.19;4972578;28;19914;-68
2023/02/24 09:01:24;;;;;;;;;;;;;;;-142.75;100.00;77385.31;4975084;28;20383;-68
2023/02/24 09:03:51;;;;;;;;;;;;;;;-142.75;100.00;77371.53;4976780;28;19961;-68
2023/02/24 09:06:24;;;;;;;;;;;;;;;-142.75;100.00;77385.31;4977045;28;19920;-68
2023/02/24 09:08:49;;;;;;;;;;;;;;;-142.75;100.00;77408.94;4975898;28;19914;-68
2023/02/24 09:11:15;;;;;;;;;;;;;;;-142.75;100.00;77416.81;4974386;28;19933;-68
2023/02/24 09:13:50;;;;;;;;;;;;;;;-142.75;100.00;77410.91;4973815;28;19922;-67
2023/02/24 09:16:19;;;;;;;;;;;;;;;-142.75;100.00;77406.97;4974312;28;20364;-67
2023/02/24 09:18:45;;;;;;;;;;;;;;;-142.75;100.00;77414.84;4972409;28;19949;-68
2023/02/24 09:23:59;;;;;;;;;;;;;;;-142.75;100.00;77399.09;4970023;28;19929;-67
2023/02/24 09:26:24;;;;;;;;;;;;;;;-142.75;100.00;77389.25;4976739;28;19960;-67
2023/02/24 09:28:54;;;;;;;;;;;;;;;-142.75;100.00;77375.47;4988591;28;20391;-68
2023/02/24 09:31:22;;;;;;;;;;;;;;;-142.75;100.00;77393.19;4973531;28;20004;-68
2023/02/24 09:33:49;;;;;;;;;;;;;;;-142.75;100.00;77401.06;4974463;28;19925;-68
2023/02/24 09:36:19;;;;;;;;;;;;;;;-142.75;100.00;77379.41;4973842;28;19960;-68
2023/02/24 09:41:30;;;;;;;;;;;;;;;-142.75;100.00;77365.63;4974239;28;19944;-68
2023/02/24 09:43:59;;;;;;;;;;;;;;;-142.75;100.00;77347.91;4973804;28;21300;-68
2023/02/24 09:46:24;;;;;;;;;;;;;;;-142.75;100.00;77351.84;4974449;28;19968;-68
2023/02/24 09:48:55;;;;;;;;;;;;;;;-142.75;100.00;77363.66;4974198;28;20299;-68
2023/02/24 09:51:21;;;;;;;;;;;;;;;-142.75;100.00;77342.00;4973121;28;19918;-68
2023/02/24 09:53:51;;;;;;;;;;;;;;;-142.75;100.00;77312.47;4971920;28;19918;-68
2023/02/24 09:56:21;;;;;;;;;;;;;;;-142.75;100.00;77290.81;4975737;28;19913;-67
2023/02/24 09:58:57;;;;;;;;;;;;;;;-142.75;100.00;77271.13;4988750;28;20303;-67
2023/02/24 10:01:41;;;;;;;;;;;;;;;-142.75;100.00;77251.44;4973739;28;19914;-64
2023/02/24 10:04:09;;;;;;;;;;;;;;;-142.75;100.00;77251.44;4973422;28;19917;-64
2023/02/24 10:06:42;;;;;;;;;;;;;;;-142.75;100.00;77237.66;4972499;28;19914;-65
2023/02/24 10:09:20;;;;;;;;;;;;;;;-142.75;100.00;77229.78;4969724;28;20299;-64
2023/02/24 10:11:52;;;;;;;;;;;;;;;-142.75;100.00;77227.81;4973160;28;20391;-64
2023/02/24 10:14:47;;;;;;;;;;;;;;;-142.75;100.00;77227.81;4973334;28;19914;-65
2023/02/24 10:17:24;;;;;;;;;;;;;;;-142.75;100.00;77221.91;4969110;28;20450;-68
2023/02/24 10:19:58;;;;;;;;;;;;;;;-142.75;100.00;77223.88;4973254;28;20375;-68
2023/02/24 10:22:39;;;;;;;;;;;;;;;-142.75;100.00;77198.28;4973096;28;19982;-68
2023/02/24 10:25:10;;;;;;;;;;;;;;;-142.75;100.00;77184.50;4973600;28;19914;-68
2023/02/24 10:27:40;;;;;;;;;;;;;;;-142.75;100.00;77154.97;4974714;28;19914;-67
2023/02/24 10:30:18;;;;;;;;;;;;;;;-142.75;100.00;77156.94;4992752;28;19921;-67
2023/02/24 10:32:49;;;;;;;;;;;;;;;-142.75;100.00;77137.25;5008784;28;19921;-67
2023/02/24 10:35:16;;;;;;;;;;;;;;;-142.75;100.00;77137.25;4993198;28;19913;-67
2023/02/24 10:37:41;;;;;;;;;;;;;;;-142.75;100.00;77137.25;4993095;28;19917;-68
2023/02/24 10:40:11;;;;;;;;;;;;;;;-142.75;100.00;77117.56;4992547;28;19935;-68
2023/02/24 10:42:44;;;;;;;;;;;;;;;-142.75;100.00;77133.31;4992712;28;19961;-68
2023/02/24 10:45:22;;;;;;;;;;;;;;;-142.75;100.00;77127.41;4992706;28;19914;-68
2023/02/24 10:47:55;;;;;;;;;;;;;;;-142.75;100.00;77125.44;4992745;28;19917;-67
2023/02/24 10:50:21;;;;;;;;;;;;;;;-142.75;100.00;77105.75;4992779;28;19914;-67
2023/02/24 10:53:09;;;;;;;;;;;;;;;-142.75;100.00;77117.56;4992320;28;19921;-67
2023/02/24 10:58:26;;;;;;;;;;;;;;;-142.75;100.00;77101.81;4992385;28;19921;-67
2023/02/24 11:03:34;;;;;;;;;;;;;;;-142.75;100.00;77111.66;4992596;28;19913;-67
2023/02/24 11:11:28;;;;;;;;;;;;;;;-142.75;100.00;77078.19;4992323;28;19924;-67
2023/02/24 11:19:29;;;;;;;;;;;;;;;-142.75;100.00;77095.91;4992175;28;20564;-67
2023/02/24 11:21:55;;;;;;;;;;;;;;;-142.75;100.00;77088.03;4992253;28;20004;-68
2023/02/24 11:24:20;;;;;;;;;;;;;;;-142.75;100.00;77090.00;4992010;28;19992;-67
2023/02/24 11:26:45;;;;;;;;;;;;;;;-142.75;100.00;77084.09;4991977;28;20303;-67
2023/02/24 11:29:20;;;;;;;;;;;;;;;-142.75;100.00;77070.31;4991791;28;20383;-68
2023/02/24 11:31:58;;;;;;;;;;;;;;;-142.75;100.00;77082.13;4991742;28;19980;-68
2023/02/24 11:34:34;;;;;;;;;;;;;;;-142.75;100.00;77054.56;5006258;28;19922;-68
2023/02/24 11:37:13;;;;;;;;;;;;;;;-142.75;100.00;77042.75;4974263;28;19914;-67
2023/02/24 11:39:47;;;;;;;;;;;;;;;-142.75;100.00;77032.91;4972010;28;20384;-67
2023/02/24 11:42:15;;;;;;;;;;;;;;;-142.75;100.00;77019.13;4972428;28;19921;-67
2023/02/24 11:44:50;;;;;;;;;;;;;;;-142.75;100.00;77030.94;4972294;28;19962;-67
2023/02/24 11:47:20;;;;;;;;;;;;;;;-142.75;100.00;77015.19;4972470;28;19914;-67
2023/02/24 11:49:52;;;;;;;;;;;;;;;-142.75;100.00;77011.25;4972535;28;19918;-67
2023/02/24 11:52:19;;;;;;;;;;;;;;;-142.75;100.00;77011.25;4971550;28;20474;-66
2023/02/24 11:54:47;;;;;;;;;;;;;;;-142.75;100.00;76995.50;4971085;28;19914;-66
2023/02/24 11:57:17;;;;;;;;;;;;;;;-142.75;100.00;77003.38;4973591;28;19957;-67
2023/02/24 11:59:45;;;;;;;;;;;;;;;-142.75;100.00;77003.38;4970697;28;19913;-67
2023/02/24 12:02:13;;;;;;;;;;;;;;;-142.75;100.00;77009.28;4972225;28;19914;-67
2023/02/24 12:04:42;;;;;;;;;;;;;;;-142.75;100.00;76999.44;4972264;28;19918;-67
2023/02/24 12:07:13;;;;;;;;;;;;;;;-142.75;100.00;77005.34;4988905;28;19932;-67
2023/02/24 12:10:11;;;;;;;;;;;;;;;-142.75;100.00;76993.53;4990253;28;19926;-67
2023/02/24 12:12:55;;;;;;;;;;;;;;;-142.75;100.00;76979.75;4975812;28;20487;-68
2023/02/24 12:15:25;;;;;;;;;;;;;;;-142.75;100.00;76948.25;4976540;28;20342;-66
2023/02/24 12:17:56;;;;;;;;;;;;;;;-142.75;100.00;76904.94;4977409;28;20380;-67
2023/02/24 12:20:26;;;;;;;;;;;;;;;-142.75;100.00;76877.38;4975532;28;19925;-67
2023/02/24 12:22:56;;;;;;;;;;;;;;;-142.75;100.00;76853.75;4977557;28;19925;-68
2023/02/24 12:25:31;;;;;;;;;;;;;;;-142.75;100.00;76834.06;4977110;28;19968;-67
2023/02/24 12:27:56;;;;;;;;;;;;;;;-142.75;100.00;76822.25;4977340;28;19976;-68
2023/02/24 12:30:21;;;;;;;;;;;;;;;-142.75;100.00;76806.50;4977578;28;19914;-68
2023/02/24 12:33:05;;;;;;;;;;;;;;;-142.75;100.00;76798.66;4989864;28;20415;-67
2023/02/24 12:35:36;;;;;;;;;;;;;;;-142.75;100.00;76810.44;4976020;28;20441;-67
2023/02/24 12:38:25;;;;;;;;;;;;;;;-142.75;100.00;76786.84;4978264;28;20310;-67
2023/02/24 12:40:53;;;;;;;;;;;;;;;-142.75;100.00;76782.91;4976417;28;19921;-68
2023/02/24 12:43:37;;;;;;;;;;;;;;;-142.75;100.00;76771.09;4990860;28;19917;-67
2023/02/24 12:46:12;;;;;;;;;;;;;;;-142.75;100.00;76788.81;4975758;28;19941;-68
2023/02/24 12:48:37;;;;;;;;;;;;;;;-142.75;100.00;76777.00;4976457;28;19918;-66
2023/02/24 12:51:18;;;;;;;;;;;;;;;-142.75;100.00;76784.88;4990547;28;19918;-67
2023/02/24 12:53:44;;;;;;;;;;;;;;;-142.75;100.00;76806.50;4974973;28;19921;-66
2023/02/24 12:56:12;;;;;;;;;;;;;;;-142.75;100.00;76790.78;4991161;28;19913;-68